sensor_id;sensor_type;location;lat;lon;timestamp;P1;durP1;ratioP1;P2;durP2;ratioP2
23416;SDS011;11881;42.432;25.632;2024-01-30T00:02:11;6.00;;;2.93;;
23416;SDS011;11881;42.432;25.632;2024-01-30T00:04:37;4.40;;;2.97;;
23416;SDS011;11881;42.432;25.632;2024-01-30T00:07:02;5.67;;;3.40;;
23416;SDS011;11881;42.432;25.632;2024-01-30T00:09:28;5.30;;;3.70;;
23416;SDS011;11881;42.432;25.632;2024-01-30T00:11:54;5.77;;;3.70;;
23416;SDS011;11881;42.432;25.632;2024-01-30T00:14:19;6.30;;;4.00;;
23416;SDS011;11881;42.432;25.632;2024-01-30T00:16:45;5.57;;;3.53;;
23416;SDS011;11881;42.432;25.632;2024-01-30T00:19:10;7.40;;;4.10;;
23416;SDS011;11881;42.432;25.632;2024-01-30T00:21:36;7.73;;;4.57;;
23416;SDS011;11881;42.432;25.632;2024-01-30T00:24:01;6.47;;;4.23;;
23416;SDS011;11881;42.432;25.632;2024-01-30T00:26:27;8.43;;;4.57;;
23416;SDS011;11881;42.432;25.632;2024-01-30T00:28:52;6.63;;;4.27;;
23416;SDS011;11881;42.432;25.632;2024-01-30T00:31:18;5.80;;;4.30;;
23416;SDS011;11881;42.432;25.632;2024-01-30T00:33:43;6.60;;;4.30;;
23416;SDS011;11881;42.432;25.632;2024-01-30T00:36:09;8.57;;;4.70;;
23416;SDS011;11881;42.432;25.632;2024-01-30T00:38:35;8.17;;;4.37;;
23416;SDS011;11881;42.432;25.632;2024-01-30T00:41:01;7.70;;;4.83;;
23416;SDS011;11881;42.432;25.632;2024-01-30T00:43:27;7.97;;;4.77;;
23416;SDS011;11881;42.432;25.632;2024-01-30T00:45:52;8.57;;;4.70;;
23416;SDS011;11881;42.432;25.632;2024-01-30T00:48:19;7.83;;;4.90;;
23416;SDS011;11881;42.432;25.632;2024-01-30T00:50:45;7.93;;;4.60;;
23416;SDS011;11881;42.432;25.632;2024-01-30T00:53:10;8.67;;;5.00;;
23416;SDS011;11881;42.432;25.632;2024-01-30T00:55:36;7.27;;;4.50;;
23416;SDS011;11881;42.432;25.632;2024-01-30T00:58:01;7.87;;;4.63;;
23416;SDS011;11881;42.432;25.632;2024-01-30T01:00:28;8.50;;;4.60;;
23416;SDS011;11881;42.432;25.632;2024-01-30T01:02:54;6.70;;;4.57;;
23416;SDS011;11881;42.432;25.632;2024-01-30T01:05:20;7.23;;;3.97;;
23416;SDS011;11881;42.432;25.632;2024-01-30T01:07:46;7.63;;;4.70;;
23416;SDS011;11881;42.432;25.632;2024-01-30T01:10:13;8.27;;;4.40;;
23416;SDS011;11881;42.432;25.632;2024-01-30T01:12:39;7.47;;;4.63;;
23416;SDS011;11881;42.432;25.632;2024-01-30T01:15:05;7.47;;;4.77;;
23416;SDS011;11881;42.432;25.632;2024-01-30T01:17:34;7.70;;;4.73;;
23416;SDS011;11881;42.432;25.632;2024-01-30T01:19:59;8.67;;;5.10;;
23416;SDS011;11881;42.432;25.632;2024-01-30T01:22:25;6.90;;;4.00;;
23416;SDS011;11881;42.432;25.632;2024-01-30T01:24:50;8.77;;;4.50;;
23416;SDS011;11881;42.432;25.632;2024-01-30T01:27:16;9.00;;;5.17;;
23416;SDS011;11881;42.432;25.632;2024-01-30T01:29:41;10.93;;;4.53;;
23416;SDS011;11881;42.432;25.632;2024-01-30T01:32:07;7.17;;;4.27;;
23416;SDS011;11881;42.432;25.632;2024-01-30T01:34:33;7.77;;;4.20;;
23416;SDS011;11881;42.432;25.632;2024-01-30T01:36:58;7.77;;;4.27;;
23416;SDS011;11881;42.432;25.632;2024-01-30T01:39:25;8.17;;;4.53;;
23416;SDS011;11881;42.432;25.632;2024-01-30T01:41:50;7.10;;;4.53;;
23416;SDS011;11881;42.432;25.632;2024-01-30T01:44:17;7.63;;;4.87;;
23416;SDS011;11881;42.432;25.632;2024-01-30T01:46:45;7.97;;;4.73;;
23416;SDS011;11881;42.432;25.632;2024-01-30T01:49:11;8.07;;;4.70;;
23416;SDS011;11881;42.432;25.632;2024-01-30T01:51:36;8.73;;;4.43;;
23416;SDS011;11881;42.432;25.632;2024-01-30T01:54:06;6.40;;;4.07;;
23416;SDS011;11881;42.432;25.632;2024-01-30T01:56:33;6.43;;;4.10;;
23416;SDS011;11881;42.432;25.632;2024-01-30T01:59:05;6.07;;;3.73;;
23416;SDS011;11881;42.432;25.632;2024-01-30T02:01:37;6.23;;;4.47;;
23416;SDS011;11881;42.432;25.632;2024-01-30T02:04:04;6.13;;;3.90;;
23416;SDS011;11881;42.432;25.632;2024-01-30T02:06:29;7.30;;;4.40;;
23416;SDS011;11881;42.432;25.632;2024-01-30T02:08:56;7.00;;;4.27;;
23416;SDS011;11881;42.432;25.632;2024-01-30T02:11:22;6.87;;;4.40;;
23416;SDS011;11881;42.432;25.632;2024-01-30T02:13:49;6.57;;;4.43;;
23416;SDS011;11881;42.432;25.632;2024-01-30T02:16:15;8.13;;;5.20;;
23416;SDS011;11881;42.432;25.632;2024-01-30T02:18:42;7.20;;;4.27;;
23416;SDS011;11881;42.432;25.632;2024-01-30T02:21:10;7.50;;;4.73;;
23416;SDS011;11881;42.432;25.632;2024-01-30T02:23:36;7.40;;;4.50;;
23416;SDS011;11881;42.432;25.632;2024-01-30T02:26:02;7.77;;;5.10;;
23416;SDS011;11881;42.432;25.632;2024-01-30T02:28:28;8.77;;;4.73;;
23416;SDS011;11881;42.432;25.632;2024-01-30T02:30:53;6.57;;;4.13;;
23416;SDS011;11881;42.432;25.632;2024-01-30T02:33:19;7.80;;;5.10;;
23416;SDS011;11881;42.432;25.632;2024-01-30T02:35:47;8.47;;;5.40;;
23416;SDS011;11881;42.432;25.632;2024-01-30T02:38:12;7.20;;;4.97;;
23416;SDS011;11881;42.432;25.632;2024-01-30T02:40:38;8.90;;;5.10;;
23416;SDS011;11881;42.432;25.632;2024-01-30T02:43:03;9.10;;;5.53;;
23416;SDS011;11881;42.432;25.632;2024-01-30T02:45:29;7.40;;;5.00;;
23416;SDS011;11881;42.432;25.632;2024-01-30T02:47:54;7.80;;;5.07;;
23416;SDS011;11881;42.432;25.632;2024-01-30T02:50:20;8.57;;;5.07;;
23416;SDS011;11881;42.432;25.632;2024-01-30T02:52:45;9.03;;;5.67;;
23416;SDS011;11881;42.432;25.632;2024-01-30T02:55:11;8.77;;;5.40;;
23416;SDS011;11881;42.432;25.632;2024-01-30T02:57:37;7.37;;;4.93;;
23416;SDS011;11881;42.432;25.632;2024-01-30T03:00:03;7.77;;;4.97;;
23416;SDS011;11881;42.432;25.632;2024-01-30T03:02:31;9.33;;;5.27;;
23416;SDS011;11881;42.432;25.632;2024-01-30T03:04:56;8.97;;;5.30;;
23416;SDS011;11881;42.432;25.632;2024-01-30T03:07:22;7.63;;;5.40;;
23416;SDS011;11881;42.432;25.632;2024-01-30T03:09:47;9.57;;;5.70;;
23416;SDS011;11881;42.432;25.632;2024-01-30T03:12:13;8.33;;;5.20;;
23416;SDS011;11881;42.432;25.632;2024-01-30T03:14:39;9.07;;;5.33;;
23416;SDS011;11881;42.432;25.632;2024-01-30T03:17:04;7.80;;;4.83;;
23416;SDS011;11881;42.432;25.632;2024-01-30T03:19:30;9.00;;;5.37;;
23416;SDS011;11881;42.432;25.632;2024-01-30T03:21:55;11.33;;;5.60;;
23416;SDS011;11881;42.432;25.632;2024-01-30T03:24:21;7.63;;;4.87;;
23416;SDS011;11881;42.432;25.632;2024-01-30T03:26:46;9.40;;;5.17;;
23416;SDS011;11881;42.432;25.632;2024-01-30T03:29:12;10.20;;;5.93;;
23416;SDS011;11881;42.432;25.632;2024-01-30T03:31:38;8.77;;;5.47;;
23416;SDS011;11881;42.432;25.632;2024-01-30T03:34:04;10.77;;;6.60;;
23416;SDS011;11881;42.432;25.632;2024-01-30T03:36:29;10.63;;;6.20;;
23416;SDS011;11881;42.432;25.632;2024-01-30T03:38:58;10.50;;;6.33;;
23416;SDS011;11881;42.432;25.632;2024-01-30T03:41:23;11.60;;;6.70;;
23416;SDS011;11881;42.432;25.632;2024-01-30T03:43:49;8.40;;;5.43;;
23416;SDS011;11881;42.432;25.632;2024-01-30T03:46:15;9.03;;;5.73;;
23416;SDS011;11881;42.432;25.632;2024-01-30T03:48:40;10.00;;;5.57;;
23416;SDS011;11881;42.432;25.632;2024-01-30T03:51:06;9.27;;;5.83;;
23416;SDS011;11881;42.432;25.632;2024-01-30T03:53:31;9.23;;;6.10;;
23416;SDS011;11881;42.432;25.632;2024-01-30T03:55:57;12.20;;;6.53;;
23416;SDS011;11881;42.432;25.632;2024-01-30T03:58:22;10.03;;;6.43;;
23416;SDS011;11881;42.432;25.632;2024-01-30T04:00:48;12.40;;;6.40;;
23416;SDS011;11881;42.432;25.632;2024-01-30T04:03:17;10.00;;;6.27;;
23416;SDS011;11881;42.432;25.632;2024-01-30T04:05:42;15.03;;;6.97;;
23416;SDS011;11881;42.432;25.632;2024-01-30T04:08:09;11.07;;;6.07;;
23416;SDS011;11881;42.432;25.632;2024-01-30T04:10:34;11.20;;;6.07;;
23416;SDS011;11881;42.432;25.632;2024-01-30T04:13:00;13.37;;;6.90;;
23416;SDS011;11881;42.432;25.632;2024-01-30T04:15:26;11.80;;;6.00;;
23416;SDS011;11881;42.432;25.632;2024-01-30T04:17:51;10.23;;;6.43;;
23416;SDS011;11881;42.432;25.632;2024-01-30T04:20:17;11.20;;;6.40;;
23416;SDS011;11881;42.432;25.632;2024-01-30T04:22:43;12.30;;;6.70;;
23416;SDS011;11881;42.432;25.632;2024-01-30T04:25:09;11.90;;;6.90;;
23416;SDS011;11881;42.432;25.632;2024-01-30T04:27:35;12.57;;;6.97;;
23416;SDS011;11881;42.432;25.632;2024-01-30T04:30:00;12.27;;;7.20;;
23416;SDS011;11881;42.432;25.632;2024-01-30T04:32:26;12.17;;;7.37;;
23416;SDS011;11881;42.432;25.632;2024-01-30T04:34:51;14.23;;;7.83;;
23416;SDS011;11881;42.432;25.632;2024-01-30T04:37:17;11.73;;;7.13;;
23416;SDS011;11881;42.432;25.632;2024-01-30T04:39:42;12.33;;;6.90;;
23416;SDS011;11881;42.432;25.632;2024-01-30T04:42:08;12.00;;;6.93;;
23416;SDS011;11881;42.432;25.632;2024-01-30T04:44:33;11.37;;;7.10;;
23416;SDS011;11881;42.432;25.632;2024-01-30T04:46:59;11.57;;;6.73;;
23416;SDS011;11881;42.432;25.632;2024-01-30T04:49:26;13.77;;;7.70;;
23416;SDS011;11881;42.432;25.632;2024-01-30T04:51:52;11.60;;;7.20;;
23416;SDS011;11881;42.432;25.632;2024-01-30T04:54:18;13.13;;;7.53;;
23416;SDS011;11881;42.432;25.632;2024-01-30T04:56:43;14.20;;;7.73;;
23416;SDS011;11881;42.432;25.632;2024-01-30T04:59:08;13.43;;;7.87;;
23416;SDS011;11881;42.432;25.632;2024-01-30T05:01:34;14.07;;;8.43;;
23416;SDS011;11881;42.432;25.632;2024-01-30T05:03:59;14.77;;;8.00;;
23416;SDS011;11881;42.432;25.632;2024-01-30T05:06:26;14.33;;;7.67;;
23416;SDS011;11881;42.432;25.632;2024-01-30T05:08:52;13.27;;;8.20;;
23416;SDS011;11881;42.432;25.632;2024-01-30T05:11:18;12.83;;;7.80;;
23416;SDS011;11881;42.432;25.632;2024-01-30T05:13:43;14.73;;;8.30;;
23416;SDS011;11881;42.432;25.632;2024-01-30T05:16:09;13.93;;;8.10;;
23416;SDS011;11881;42.432;25.632;2024-01-30T05:18:35;14.20;;;7.90;;
23416;SDS011;11881;42.432;25.632;2024-01-30T05:21:01;13.60;;;8.53;;
23416;SDS011;11881;42.432;25.632;2024-01-30T05:23:27;14.37;;;8.57;;
23416;SDS011;11881;42.432;25.632;2024-01-30T05:25:53;12.93;;;7.93;;
23416;SDS011;11881;42.432;25.632;2024-01-30T05:28:18;12.90;;;7.73;;
23416;SDS011;11881;42.432;25.632;2024-01-30T05:30:44;14.93;;;8.40;;
23416;SDS011;11881;42.432;25.632;2024-01-30T05:33:09;13.57;;;7.90;;
23416;SDS011;11881;42.432;25.632;2024-01-30T05:35:37;13.77;;;8.80;;
23416;SDS011;11881;42.432;25.632;2024-01-30T05:38:03;14.57;;;8.53;;
23416;SDS011;11881;42.432;25.632;2024-01-30T05:40:29;13.77;;;8.23;;
23416;SDS011;11881;42.432;25.632;2024-01-30T05:42:55;14.73;;;8.63;;
23416;SDS011;11881;42.432;25.632;2024-01-30T05:45:21;15.07;;;8.47;;
23416;SDS011;11881;42.432;25.632;2024-01-30T05:47:48;14.13;;;8.40;;
23416;SDS011;11881;42.432;25.632;2024-01-30T05:50:13;14.37;;;8.77;;
23416;SDS011;11881;42.432;25.632;2024-01-30T05:52:39;15.87;;;8.33;;
23416;SDS011;11881;42.432;25.632;2024-01-30T05:55:04;16.93;;;8.57;;
23416;SDS011;11881;42.432;25.632;2024-01-30T05:57:30;15.13;;;9.03;;
23416;SDS011;11881;42.432;25.632;2024-01-30T05:59:56;13.73;;;8.00;;
23416;SDS011;11881;42.432;25.632;2024-01-30T06:02:22;13.77;;;7.97;;
23416;SDS011;11881;42.432;25.632;2024-01-30T06:04:47;14.57;;;8.47;;
23416;SDS011;11881;42.432;25.632;2024-01-30T06:07:13;15.23;;;8.53;;
23416;SDS011;11881;42.432;25.632;2024-01-30T06:09:38;14.77;;;8.23;;
23416;SDS011;11881;42.432;25.632;2024-01-30T06:12:04;12.90;;;7.93;;
23416;SDS011;11881;42.432;25.632;2024-01-30T06:14:30;12.37;;;7.30;;
23416;SDS011;11881;42.432;25.632;2024-01-30T06:16:56;12.70;;;7.37;;
23416;SDS011;11881;42.432;25.632;2024-01-30T06:19:21;13.17;;;7.13;;
23416;SDS011;11881;42.432;25.632;2024-01-30T06:21:47;15.07;;;7.83;;
23416;SDS011;11881;42.432;25.632;2024-01-30T06:24:12;13.17;;;7.10;;
23416;SDS011;11881;42.432;25.632;2024-01-30T06:26:38;12.33;;;7.60;;
23416;SDS011;11881;42.432;25.632;2024-01-30T06:29:03;15.93;;;6.87;;
23416;SDS011;11881;42.432;25.632;2024-01-30T06:31:29;10.93;;;6.23;;
23416;SDS011;11881;42.432;25.632;2024-01-30T06:33:54;11.57;;;6.80;;
23416;SDS011;11881;42.432;25.632;2024-01-30T06:36:19;11.70;;;6.47;;
23416;SDS011;11881;42.432;25.632;2024-01-30T06:38:45;12.70;;;6.97;;
23416;SDS011;11881;42.432;25.632;2024-01-30T06:41:10;11.97;;;6.57;;
23416;SDS011;11881;42.432;25.632;2024-01-30T06:43:36;11.67;;;5.57;;
23416;SDS011;11881;42.432;25.632;2024-01-30T06:46:01;9.40;;;5.53;;
23416;SDS011;11881;42.432;25.632;2024-01-30T06:48:27;13.80;;;6.60;;
23416;SDS011;11881;42.432;25.632;2024-01-30T06:50:53;12.53;;;6.40;;
23416;SDS011;11881;42.432;25.632;2024-01-30T06:53:19;10.30;;;6.10;;
23416;SDS011;11881;42.432;25.632;2024-01-30T06:55:45;12.77;;;6.93;;
23416;SDS011;11881;42.432;25.632;2024-01-30T06:58:10;9.40;;;5.53;;
23416;SDS011;11881;42.432;25.632;2024-01-30T07:00:36;9.47;;;5.50;;
23416;SDS011;11881;42.432;25.632;2024-01-30T07:03:02;10.33;;;5.53;;
23416;SDS011;11881;42.432;25.632;2024-01-30T07:05:28;9.93;;;5.30;;
23416;SDS011;11881;42.432;25.632;2024-01-30T07:07:53;12.03;;;5.33;;
23416;SDS011;11881;42.432;25.632;2024-01-30T07:10:19;10.10;;;5.50;;
23416;SDS011;11881;42.432;25.632;2024-01-30T07:12:44;10.03;;;5.60;;
23416;SDS011;11881;42.432;25.632;2024-01-30T07:15:10;10.13;;;5.63;;
23416;SDS011;11881;42.432;25.632;2024-01-30T07:17:35;10.93;;;5.53;;
23416;SDS011;11881;42.432;25.632;2024-01-30T07:20:01;9.40;;;5.60;;
23416;SDS011;11881;42.432;25.632;2024-01-30T07:22:30;9.77;;;5.47;;
23416;SDS011;11881;42.432;25.632;2024-01-30T07:24:56;9.70;;;6.03;;
23416;SDS011;11881;42.432;25.632;2024-01-30T07:27:22;8.57;;;5.60;;
23416;SDS011;11881;42.432;25.632;2024-01-30T07:29:47;13.13;;;5.90;;
23416;SDS011;11881;42.432;25.632;2024-01-30T07:32:13;8.13;;;5.03;;
23416;SDS011;11881;42.432;25.632;2024-01-30T07:34:40;8.67;;;4.67;;
23416;SDS011;11881;42.432;25.632;2024-01-30T07:37:05;9.33;;;5.97;;
23416;SDS011;11881;42.432;25.632;2024-01-30T07:39:33;10.10;;;5.80;;
23416;SDS011;11881;42.432;25.632;2024-01-30T07:41:59;8.23;;;4.70;;
23416;SDS011;11881;42.432;25.632;2024-01-30T07:44:24;8.57;;;4.40;;
23416;SDS011;11881;42.432;25.632;2024-01-30T07:46:50;7.93;;;4.03;;
23416;SDS011;11881;42.432;25.632;2024-01-30T07:49:15;9.53;;;5.20;;
23416;SDS011;11881;42.432;25.632;2024-01-30T07:51:41;10.90;;;5.00;;
23416;SDS011;11881;42.432;25.632;2024-01-30T07:54:06;8.27;;;4.80;;
23416;SDS011;11881;42.432;25.632;2024-01-30T07:56:32;7.70;;;4.90;;
23416;SDS011;11881;42.432;25.632;2024-01-30T07:58:57;8.70;;;4.40;;
23416;SDS011;11881;42.432;25.632;2024-01-30T08:01:22;9.13;;;4.77;;
23416;SDS011;11881;42.432;25.632;2024-01-30T08:03:48;7.70;;;4.63;;
23416;SDS011;11881;42.432;25.632;2024-01-30T08:06:13;8.90;;;4.40;;
23416;SDS011;11881;42.432;25.632;2024-01-30T08:08:39;8.30;;;4.10;;
23416;SDS011;11881;42.432;25.632;2024-01-30T08:11:04;8.13;;;4.50;;
23416;SDS011;11881;42.432;25.632;2024-01-30T08:13:30;7.30;;;4.03;;
23416;SDS011;11881;42.432;25.632;2024-01-30T08:15:56;7.37;;;3.97;;
23416;SDS011;11881;42.432;25.632;2024-01-30T08:18:21;7.90;;;4.20;;
23416;SDS011;11881;42.432;25.632;2024-01-30T08:20:47;6.33;;;3.57;;
23416;SDS011;11881;42.432;25.632;2024-01-30T08:23:13;7.90;;;3.53;;
23416;SDS011;11881;42.432;25.632;2024-01-30T08:25:38;7.60;;;3.70;;
23416;SDS011;11881;42.432;25.632;2024-01-30T08:28:04;6.23;;;3.87;;
23416;SDS011;11881;42.432;25.632;2024-01-30T08:30:29;5.63;;;3.40;;
23416;SDS011;11881;42.432;25.632;2024-01-30T08:32:55;5.17;;;3.20;;
23416;SDS011;11881;42.432;25.632;2024-01-30T08:35:20;5.87;;;3.30;;
23416;SDS011;11881;42.432;25.632;2024-01-30T08:37:46;6.63;;;3.90;;
23416;SDS011;11881;42.432;25.632;2024-01-30T08:40:11;5.87;;;3.70;;
23416;SDS011;11881;42.432;25.632;2024-01-30T08:42:37;5.23;;;3.30;;
23416;SDS011;11881;42.432;25.632;2024-01-30T08:45:02;7.93;;;4.30;;
23416;SDS011;11881;42.432;25.632;2024-01-30T08:47:29;6.93;;;3.53;;
23416;SDS011;11881;42.432;25.632;2024-01-30T08:49:55;4.53;;;3.10;;
23416;SDS011;11881;42.432;25.632;2024-01-30T08:52:20;8.33;;;3.77;;
23416;SDS011;11881;42.432;25.632;2024-01-30T08:54:46;6.87;;;3.33;;
23416;SDS011;11881;42.432;25.632;2024-01-30T08:57:11;6.10;;;4.00;;
23416;SDS011;11881;42.432;25.632;2024-01-30T08:59:37;6.93;;;4.20;;
23416;SDS011;11881;42.432;25.632;2024-01-30T09:02:02;7.07;;;4.10;;
23416;SDS011;11881;42.432;25.632;2024-01-30T09:04:29;6.30;;;3.97;;
23416;SDS011;11881;42.432;25.632;2024-01-30T09:06:54;6.20;;;3.70;;
23416;SDS011;11881;42.432;25.632;2024-01-30T09:09:20;6.20;;;3.70;;
23416;SDS011;11881;42.432;25.632;2024-01-30T09:11:45;8.40;;;4.07;;
23416;SDS011;11881;42.432;25.632;2024-01-30T09:14:11;6.27;;;3.40;;
23416;SDS011;11881;42.432;25.632;2024-01-30T09:16:37;4.77;;;3.40;;
23416;SDS011;11881;42.432;25.632;2024-01-30T09:19:02;7.30;;;3.60;;
23416;SDS011;11881;42.432;25.632;2024-01-30T09:21:28;16.47;;;4.23;;
23416;SDS011;11881;42.432;25.632;2024-01-30T09:24:01;8.00;;;3.90;;
23416;SDS011;11881;42.432;25.632;2024-01-30T09:26:30;11.53;;;4.00;;
23416;SDS011;11881;42.432;25.632;2024-01-30T09:28:56;6.20;;;3.53;;
23416;SDS011;11881;42.432;25.632;2024-01-30T09:31:21;6.00;;;3.67;;
23416;SDS011;11881;42.432;25.632;2024-01-30T09:33:47;7.43;;;4.00;;
23416;SDS011;11881;42.432;25.632;2024-01-30T09:36:14;5.90;;;3.80;;
23416;SDS011;11881;42.432;25.632;2024-01-30T09:38:40;7.93;;;3.77;;
23416;SDS011;11881;42.432;25.632;2024-01-30T09:41:08;6.57;;;3.73;;
23416;SDS011;11881;42.432;25.632;2024-01-30T09:43:37;7.10;;;4.20;;
23416;SDS011;11881;42.432;25.632;2024-01-30T09:46:05;7.10;;;3.30;;
23416;SDS011;11881;42.432;25.632;2024-01-30T09:48:32;11.30;;;3.80;;
23416;SDS011;11881;42.432;25.632;2024-01-30T09:50:59;7.07;;;3.70;;
23416;SDS011;11881;42.432;25.632;2024-01-30T09:53:25;6.17;;;4.07;;
23416;SDS011;11881;42.432;25.632;2024-01-30T09:55:51;8.97;;;3.97;;
23416;SDS011;11881;42.432;25.632;2024-01-30T09:58:16;7.57;;;4.00;;
23416;SDS011;11881;42.432;25.632;2024-01-30T10:00:42;6.87;;;4.93;;
23416;SDS011;11881;42.432;25.632;2024-01-30T10:03:08;8.53;;;4.17;;
23416;SDS011;11881;42.432;25.632;2024-01-30T10:05:34;6.37;;;4.03;;
23416;SDS011;11881;42.432;25.632;2024-01-30T10:08:05;12.07;;;4.47;;
23416;SDS011;11881;42.432;25.632;2024-01-30T10:10:31;9.50;;;4.73;;
23416;SDS011;11881;42.432;25.632;2024-01-30T10:12:56;9.27;;;4.70;;
23416;SDS011;11881;42.432;25.632;2024-01-30T10:15:22;8.87;;;4.27;;
23416;SDS011;11881;42.432;25.632;2024-01-30T10:17:48;6.67;;;4.47;;
23416;SDS011;11881;42.432;25.632;2024-01-30T10:20:14;8.20;;;4.37;;
23416;SDS011;11881;42.432;25.632;2024-01-30T10:22:40;9.87;;;4.50;;
23416;SDS011;11881;42.432;25.632;2024-01-30T10:25:09;6.33;;;4.30;;
23416;SDS011;11881;42.432;25.632;2024-01-30T10:27:35;8.17;;;4.70;;
23416;SDS011;11881;42.432;25.632;2024-01-30T10:30:02;9.80;;;4.50;;
23416;SDS011;11881;42.432;25.632;2024-01-30T10:32:29;9.80;;;4.30;;
23416;SDS011;11881;42.432;25.632;2024-01-30T10:34:54;9.63;;;4.93;;
23416;SDS011;11881;42.432;25.632;2024-01-30T10:37:20;7.03;;;4.07;;
23416;SDS011;11881;42.432;25.632;2024-01-30T10:39:50;6.93;;;4.50;;
23416;SDS011;11881;42.432;25.632;2024-01-30T10:42:18;5.67;;;4.23;;
23416;SDS011;11881;42.432;25.632;2024-01-30T10:47:28;9.03;;;4.10;;
23416;SDS011;11881;42.432;25.632;2024-01-30T10:49:55;8.80;;;4.57;;
23416;SDS011;11881;42.432;25.632;2024-01-30T10:52:22;10.63;;;4.33;;
23416;SDS011;11881;42.432;25.632;2024-01-30T10:54:51;8.10;;;4.27;;
23416;SDS011;11881;42.432;25.632;2024-01-30T10:57:17;5.43;;;3.70;;
23416;SDS011;11881;42.432;25.632;2024-01-30T10:59:43;4.87;;;3.13;;
23416;SDS011;11881;42.432;25.632;2024-01-30T11:02:10;5.93;;;3.67;;
23416;SDS011;11881;42.432;25.632;2024-01-30T11:04:36;6.63;;;4.00;;
23416;SDS011;11881;42.432;25.632;2024-01-30T11:07:13;6.73;;;4.30;;
23416;SDS011;11881;42.432;25.632;2024-01-30T11:09:40;6.57;;;3.80;;
23416;SDS011;11881;42.432;25.632;2024-01-30T11:12:12;6.57;;;4.07;;
23416;SDS011;11881;42.432;25.632;2024-01-30T11:14:37;7.37;;;4.13;;
23416;SDS011;11881;42.432;25.632;2024-01-30T11:17:05;6.67;;;4.03;;
23416;SDS011;11881;42.432;25.632;2024-01-30T11:19:31;8.47;;;4.33;;
23416;SDS011;11881;42.432;25.632;2024-01-30T11:21:57;5.87;;;3.80;;
23416;SDS011;11881;42.432;25.632;2024-01-30T11:24:23;5.43;;;3.63;;
23416;SDS011;11881;42.432;25.632;2024-01-30T11:26:49;5.33;;;3.60;;
23416;SDS011;11881;42.432;25.632;2024-01-30T11:29:20;5.70;;;3.40;;
23416;SDS011;11881;42.432;25.632;2024-01-30T11:31:53;5.17;;;3.70;;
23416;SDS011;11881;42.432;25.632;2024-01-30T11:34:22;6.20;;;4.00;;
23416;SDS011;11881;42.432;25.632;2024-01-30T11:36:58;7.70;;;4.27;;
23416;SDS011;11881;42.432;25.632;2024-01-30T11:39:25;8.20;;;4.07;;
23416;SDS011;11881;42.432;25.632;2024-01-30T11:41:51;7.63;;;3.63;;
23416;SDS011;11881;42.432;25.632;2024-01-30T11:44:21;5.20;;;3.40;;
23416;SDS011;11881;42.432;25.632;2024-01-30T11:46:51;6.17;;;4.03;;
23416;SDS011;11881;42.432;25.632;2024-01-30T11:49:17;5.87;;;3.67;;
23416;SDS011;11881;42.432;25.632;2024-01-30T11:51:46;8.33;;;4.50;;
23416;SDS011;11881;42.432;25.632;2024-01-30T11:54:15;6.30;;;4.07;;
23416;SDS011;11881;42.432;25.632;2024-01-30T11:56:41;5.97;;;3.90;;
23416;SDS011;11881;42.432;25.632;2024-01-30T11:59:08;5.40;;;3.67;;
23416;SDS011;11881;42.432;25.632;2024-01-30T12:01:33;8.17;;;4.30;;
23416;SDS011;11881;42.432;25.632;2024-01-30T12:03:59;6.77;;;4.50;;
23416;SDS011;11881;42.432;25.632;2024-01-30T12:06:25;7.67;;;4.23;;
23416;SDS011;11881;42.432;25.632;2024-01-30T12:08:57;6.03;;;4.00;;
23416;SDS011;11881;42.432;25.632;2024-01-30T12:11:24;7.33;;;4.53;;
23416;SDS011;11881;42.432;25.632;2024-01-30T12:13:51;6.77;;;4.60;;
23416;SDS011;11881;42.432;25.632;2024-01-30T12:16:18;9.03;;;5.27;;
23416;SDS011;11881;42.432;25.632;2024-01-30T12:18:43;7.43;;;4.37;;
23416;SDS011;11881;42.432;25.632;2024-01-30T12:21:09;7.90;;;4.80;;
23416;SDS011;11881;42.432;25.632;2024-01-30T12:23:35;6.73;;;4.13;;
23416;SDS011;11881;42.432;25.632;2024-01-30T12:26:00;6.03;;;4.07;;
23416;SDS011;11881;42.432;25.632;2024-01-30T12:28:28;6.07;;;4.30;;
23416;SDS011;11881;42.432;25.632;2024-01-30T12:31:00;6.70;;;4.07;;
23416;SDS011;11881;42.432;25.632;2024-01-30T12:33:29;6.13;;;4.43;;
23416;SDS011;11881;42.432;25.632;2024-01-30T12:35:56;7.07;;;4.10;;
23416;SDS011;11881;42.432;25.632;2024-01-30T12:38:24;6.17;;;3.67;;
23416;SDS011;11881;42.432;25.632;2024-01-30T12:40:53;4.70;;;3.33;;
23416;SDS011;11881;42.432;25.632;2024-01-30T12:43:20;6.77;;;4.07;;
23416;SDS011;11881;42.432;25.632;2024-01-30T12:45:46;5.50;;;3.90;;
23416;SDS011;11881;42.432;25.632;2024-01-30T12:48:12;6.27;;;3.53;;
23416;SDS011;11881;42.432;25.632;2024-01-30T12:50:37;6.93;;;3.63;;
23416;SDS011;11881;42.432;25.632;2024-01-30T12:53:03;7.20;;;4.47;;
23416;SDS011;11881;42.432;25.632;2024-01-30T12:55:29;7.40;;;4.30;;
23416;SDS011;11881;42.432;25.632;2024-01-30T12:57:55;7.33;;;4.13;;
23416;SDS011;11881;42.432;25.632;2024-01-30T13:00:21;5.87;;;3.53;;
23416;SDS011;11881;42.432;25.632;2024-01-30T13:02:47;6.90;;;3.80;;
23416;SDS011;11881;42.432;25.632;2024-01-30T13:05:13;6.90;;;4.30;;
23416;SDS011;11881;42.432;25.632;2024-01-30T13:07:39;9.50;;;4.10;;
23416;SDS011;11881;42.432;25.632;2024-01-30T13:10:05;5.83;;;3.67;;
23416;SDS011;11881;42.432;25.632;2024-01-30T13:12:31;6.27;;;3.90;;
23416;SDS011;11881;42.432;25.632;2024-01-30T13:15:00;5.80;;;3.83;;
23416;SDS011;11881;42.432;25.632;2024-01-30T13:17:26;9.60;;;4.20;;
23416;SDS011;11881;42.432;25.632;2024-01-30T13:19:52;6.70;;;4.23;;
23416;SDS011;11881;42.432;25.632;2024-01-30T13:22:19;7.17;;;4.33;;
23416;SDS011;11881;42.432;25.632;2024-01-30T13:24:46;6.60;;;4.30;;
23416;SDS011;11881;42.432;25.632;2024-01-30T13:27:12;7.97;;;4.57;;
23416;SDS011;11881;42.432;25.632;2024-01-30T13:29:38;9.40;;;4.77;;
23416;SDS011;11881;42.432;25.632;2024-01-30T13:32:04;8.03;;;4.77;;
23416;SDS011;11881;42.432;25.632;2024-01-30T13:34:29;9.30;;;4.70;;
23416;SDS011;11881;42.432;25.632;2024-01-30T13:36:55;8.37;;;4.70;;
23416;SDS011;11881;42.432;25.632;2024-01-30T13:39:20;7.17;;;3.50;;
23416;SDS011;11881;42.432;25.632;2024-01-30T13:41:46;10.27;;;4.17;;
23416;SDS011;11881;42.432;25.632;2024-01-30T13:44:13;6.07;;;4.03;;
23416;SDS011;11881;42.432;25.632;2024-01-30T13:46:39;7.63;;;4.50;;
23416;SDS011;11881;42.432;25.632;2024-01-30T13:49:04;7.57;;;4.63;;
23416;SDS011;11881;42.432;25.632;2024-01-30T13:51:30;12.83;;;5.10;;
23416;SDS011;11881;42.432;25.632;2024-01-30T13:53:55;8.23;;;4.73;;
23416;SDS011;11881;42.432;25.632;2024-01-30T13:56:21;8.53;;;4.70;;
23416;SDS011;11881;42.432;25.632;2024-01-30T13:58:49;7.23;;;4.30;;
23416;SDS011;11881;42.432;25.632;2024-01-30T14:01:15;8.23;;;5.03;;
23416;SDS011;11881;42.432;25.632;2024-01-30T14:03:41;11.03;;;4.77;;
23416;SDS011;11881;42.432;25.632;2024-01-30T14:06:07;8.53;;;4.53;;
23416;SDS011;11881;42.432;25.632;2024-01-30T14:08:32;7.50;;;4.60;;
23416;SDS011;11881;42.432;25.632;2024-01-30T14:10:58;14.37;;;5.20;;
23416;SDS011;11881;42.432;25.632;2024-01-30T14:13:23;10.20;;;5.07;;
23416;SDS011;11881;42.432;25.632;2024-01-30T14:15:50;7.80;;;4.27;;
23416;SDS011;11881;42.432;25.632;2024-01-30T14:18:17;8.73;;;4.70;;
23416;SDS011;11881;42.432;25.632;2024-01-30T14:20:42;8.17;;;4.67;;
23416;SDS011;11881;42.432;25.632;2024-01-30T14:23:08;8.70;;;4.17;;
23416;SDS011;11881;42.432;25.632;2024-01-30T14:25:33;6.43;;;3.57;;
23416;SDS011;11881;42.432;25.632;2024-01-30T14:27:59;5.30;;;3.60;;